Time;durP1;ratioP1;P1;durP2;ratioP2;P2;SDS_P1;SDS_P2;PMS_P1;PMS_P2;Temp;Humidity;BMP_temperature;BMP_pressure;BME280_temperature;BME280_humidity;BME280_pressure;Samples;Min_cycle;Max_cycle;Signal;HPM_P1;HPM_P2
2023/03/10 00:00:23;;;;;;;;;;;;;;;13.06;78.59;98086.34;5029296;28;19921;-71
2023/03/10 00:02:49;;;;;;;;;;;;;;;13.03;78.99;98086.59;5027692;28;19913;-70
2023/03/10 00:05:15;;;;;;;;;;;;;;;13.00;79.36;98075.25;5031141;28;20384;-70
2023/03/10 00:07:41;;;;;;;;;;;;;;;12.94;79.51;98071.22;5032100;28;19917;-70
2023/03/10 00:10:06;;;;;;;;;;;;;;;12.89;79.91;98069.84;5013405;28;19944;-70
2023/03/10 00:12:32;;;;;;;;;;;;;;;12.87;80.23;98072.63;5030259;28;20301;-70
2023/03/10 00:14:57;;;;;;;;;;;;;;;12.84;80.46;98070.19;5030940;28;19917;-70
2023/03/10 00:17:22;;;;;;;;;;;;;;;12.84;80.93;98067.53;5018636;28;20523;-69
2023/03/10 00:19:47;;;;;;;;;;;;;;;12.82;83.05;98061.44;5011275;28;19980;-69
2023/03/10 00:22:13;;;;;;;;;;;;;;;12.76;83.82;98053.88;5018451;28;20007;-69
2023/03/10 00:24:38;;;;;;;;;;;;;;;12.68;86.06;98055.41;5030849;28;19936;-69
2023/03/10 00:27:03;;;;;;;;;;;;;;;12.63;86.83;98054.88;5031115;28;20011;-69
2023/03/10 00:29:29;;;;;;;;;;;;;;;12.53;87.30;98056.50;5030115;28;19920;-70
2023/03/10 00:31:54;;;;;;;;;;;;;;;12.45;88.77;98057.06;5030888;28;19917;-70
2023/03/10 00:34:19;;;;;;;;;;;;;;;12.38;88.81;98055.78;5030355;28;19918;-69
2023/03/10 00:36:44;;;;;;;;;;;;;;;12.37;89.73;98053.22;5031020;28;19917;-69
2023/03/10 00:39:10;;;;;;;;;;;;;;;12.30;90.41;98039.47;5032007;28;19919;-70
2023/03/10 00:41:35;;;;;;;;;;;;;;;12.26;90.14;98053.09;5025508;28;19921;-70
2023/03/10 00:44:01;;;;;;;;;;;;;;;12.27;90.97;98058.34;5031536;28;19964;-71
2023/03/10 00:46:26;;;;;;;;;;;;;;;12.29;91.89;98044.91;5031563;28;19982;-71
2023/03/10 00:48:52;;;;;;;;;;;;;;;12.21;91.47;98037.44;5030917;28;20400;-71
2023/03/10 00:51:19;;;;;;;;;;;;;;;12.23;91.50;98034.66;5031240;28;20341;-71
2023/03/10 00:53:44;;;;;;;;;;;;;;;12.20;92.26;98025.09;5030750;28;19925;-71
2023/03/10 00:56:14;;;;;;;;;;;;;;;12.11;92.73;98023.06;5031332;28;20000;-70
2023/03/10 00:58:40;;;;;;;;;;;;;;;12.02;92.99;98021.06;5002312;28;19924;-71
2023/03/10 01:01:11;;;;;;;;;;;;;;;12.04;93.26;98018.28;5026734;28;20288;-71
2023/03/10 01:03:36;;;;;;;;;;;;;;;11.99;93.03;98015.94;5031192;28;20317;-70
2023/03/10 01:06:01;;;;;;;;;;;;;;;12.01;94.26;98022.00;5029983;28;19928;-70
2023/03/10 01:08:27;;;;;;;;;;;;;;;11.98;93.73;98022.22;5030664;28;20312;-70
2023/03/10 01:10:52;;;;;;;;;;;;;;;12.01;94.22;98015.84;5030906;28;19996;-70
2023/03/10 01:13:17;;;;;;;;;;;;;;;12.08;93.64;98017.09;5030081;28;19917;-70
2023/03/10 01:15:43;;;;;;;;;;;;;;;12.10;94.66;98017.84;5030821;28;19913;-70
2023/03/10 01:18:09;;;;;;;;;;;;;;;12.19;94.36;98007.38;5030848;28;20385;-70
2023/03/10 01:20:34;;;;;;;;;;;;;;;12.13;94.56;98018.47;5029834;28;19924;-70
2023/03/10 01:23:00;;;;;;;;;;;;;;;12.15;94.16;98021.91;5010547;28;19917;-70
2023/03/10 01:25:26;;;;;;;;;;;;;;;12.19;94.41;98012.72;5028625;28;19917;-70
2023/03/10 01:27:51;;;;;;;;;;;;;;;12.20;95.08;98013.56;5028592;28;19917;-71
2023/03/10 01:30:16;;;;;;;;;;;;;;;12.18;95.26;98004.81;5012855;28;20392;-70
2023/03/10 01:32:42;;;;;;;;;;;;;;;12.16;94.99;98007.59;5029802;28;19927;-71
2023/03/10 01:35:07;;;;;;;;;;;;;;;12.14;95.83;97996.19;5012118;28;19913;-71
2023/03/10 01:37:33;;;;;;;;;;;;;;;12.11;96.48;97996.41;5030047;28;20041;-71
2023/03/10 01:39:59;;;;;;;;;;;;;;;12.07;97.14;97996.75;5030660;28;20004;-71
2023/03/10 01:42:24;;;;;;;;;;;;;;;12.06;96.95;98001.22;5030729;28;19964;-71
2023/03/10 01:45:04;;;;;;;;;;;;;;;12.12;96.75;97999.94;5030049;28;20020;-71
2023/03/10 01:47:30;;;;;;;;;;;;;;;12.07;96.95;97994.94;5029634;28;20082;-71
2023/03/10 01:49:55;;;;;;;;;;;;;;;12.04;97.46;97984.50;5029049;28;20763;-72
2023/03/10 01:52:22;;;;;;;;;;;;;;;12.06;96.67;97968.41;5030041;28;19917;-71
2023/03/10 01:54:52;;;;;;;;;;;;;;;12.05;96.67;97961.34;5012428;28;19917;-72
2023/03/10 01:57:19;;;;;;;;;;;;;;;12.01;96.93;97951.88;5011509;28;20381;-72
2023/03/10 01:59:45;;;;;;;;;;;;;;;11.99;97.17;97948.47;5030172;28;19928;-71
2023/03/10 02:02:11;;;;;;;;;;;;;;;12.02;96.75;97941.13;5029582;28;20452;-71
2023/03/10 02:04:40;;;;;;;;;;;;;;;11.98;96.71;97944.94;5030263;28;19971;-71
2023/03/10 02:07:06;;;;;;;;;;;;;;;11.99;96.48;97946.66;5029235;28;19948;-71
2023/03/10 02:09:33;;;;;;;;;;;;;;;11.96;95.40;97946.03;5008901;28;19926;-71
2023/03/10 02:11:58;;;;;;;;;;;;;;;12.02;96.31;97935.78;5010306;28;19955;-71
2023/03/10 02:14:24;;;;;;;;;;;;;;;11.99;95.76;97945.81;5009471;28;19960;-71
2023/03/10 02:16:49;;;;;;;;;;;;;;;12.01;95.83;97933.25;5009043;28;19918;-71
2023/03/10 02:19:21;;;;;;;;;;;;;;;12.02;96.87;97935.78;4992732;28;19914;-71
2023/03/10 02:22:02;;;;;;;;;;;;;;;12.03;96.64;97942.81;5006967;28;19913;-71
2023/03/10 02:24:27;;;;;;;;;;;;;;;12.02;96.97;97942.91;5010617;28;19928;-71
2023/03/10 02:27:09;;;;;;;;;;;;;;;12.03;96.65;97936.63;5009658;28;19917;-70
2023/03/10 02:29:36;;;;;;;;;;;;;;;12.04;96.88;97930.34;5010647;28;19947;-70
2023/03/10 02:32:03;;;;;;;;;;;;;;;12.06;97.23;97942.59;5007845;28;19917;-71
2023/03/10 02:34:28;;;;;;;;;;;;;;;12.04;97.07;97949.00;5010103;28;20033;-71
2023/03/10 02:36:53;;;;;;;;;;;;;;;12.02;97.23;97948.25;5009695;28;20000;-70
2023/03/10 02:39:19;;;;;;;;;;;;;;;12.04;97.90;97939.22;5002022;28;19972;-71
2023/03/10 02:41:44;;;;;;;;;;;;;;;12.05;97.59;97940.03;4996660;28;19987;-71
2023/03/10 02:44:11;;;;;;;;;;;;;;;12.06;98.32;97934.59;5008383;28;20486;-70
2023/03/10 02:46:37;;;;;;;;;;;;;;;12.05;98.11;97935.56;5010821;28;19925;-71
2023/03/10 02:49:03;;;;;;;;;;;;;;;12.07;98.54;97930.13;5009174;28;20008;-70
2023/03/10 02:51:30;;;;;;;;;;;;;;;12.03;99.48;97932.16;5013343;28;19921;-71
2023/03/10 02:53:55;;;;;;;;;;;;;;;12.10;99.67;97935.22;5004174;28;19926;-70
2023/03/10 02:56:21;;;;;;;;;;;;;;;12.09;99.56;97915.75;5003349;28;19972;-70
2023/03/10 02:58:46;;;;;;;;;;;;;;;12.12;98.90;97918.19;5013681;28;19921;-70
2023/03/10 03:01:11;;;;;;;;;;;;;;;12.09;99.81;97914.88;5013042;28;20387;-70
2023/03/10 03:03:37;;;;;;;;;;;;;;;12.05;100.00;97916.06;5013425;28;20293;-70
2023/03/10 03:06:02;;;;;;;;;;;;;;;12.06;100.00;97920.44;5013474;28;19918;-70
2023/03/10 03:08:27;;;;;;;;;;;;;;;12.09;100.00;97918.41;5012699;28;20306;-71
2023/03/10 03:10:53;;;;;;;;;;;;;;;12.08;100.00;97900.69;5029451;28;19966;-71
2023/03/10 03:13:18;;;;;;;;;;;;;;;12.03;100.00;97900.19;5032416;28;20445;-71
2023/03/10 03:15:43;;;;;;;;;;;;;;;12.01;100.00;97904.75;5032975;28;19954;-71
2023/03/10 03:18:09;;;;;;;;;;;;;;;12.02;100.00;97893.16;5032579;28;20486;-70
2023/03/10 03:20:36;;;;;;;;;;;;;;;12.07;100.00;97896.34;5031958;28;19939;-70
2023/03/10 03:23:01;;;;;;;;;;;;;;;11.97;100.00;97889.97;5032967;28;19928;-71
2023/03/10 03:25:27;;;;;;;;;;;;;;;11.97;100.00;97881.97;5032620;28;20030;-71
2023/03/10 03:27:53;;;;;;;;;;;;;;;12.01;100.00;97891.44;5033058;28;19927;-72
2023/03/10 03:30:21;;;;;;;;;;;;;;;12.01;100.00;97885.28;5032091;28;19989;-71
2023/03/10 03:32:46;;;;;;;;;;;;;;;11.99;100.00;97887.19;5013202;28;20396;-71
2023/03/10 03:35:16;;;;;;;;;;;;;;;12.01;100.00;97880.78;5032032;28;19944;-71
2023/03/10 03:37:42;;;;;;;;;;;;;;;12.01;100.00;97874.63;5031821;28;20003;-72
2023/03/10 03:40:11;;;;;;;;;;;;;;;11.98;100.00;97865.03;5014100;28;20050;-72
2023/03/10 03:42:37;;;;;;;;;;;;;;;12.00;100.00;97863.09;5013244;28;19956;-71
2023/03/10 03:45:03;;;;;;;;;;;;;;;11.98;100.00;97859.69;5032688;28;19967;-71
2023/03/10 03:47:28;;;;;;;;;;;;;;;11.96;100.00;97861.59;5032609;28;19921;-71
2023/03/10 03:49:54;;;;;;;;;;;;;;;11.93;100.00;97864.50;5033039;28;19939;-71
2023/03/10 03:52:19;;;;;;;;;;;;;;;11.91;100.00;97872.59;5031793;28;20284;-71
2023/03/10 03:54:44;;;;;;;;;;;;;;;11.90;100.00;97878.03;5014945;28;19913;-71
2023/03/10 03:57:09;;;;;;;;;;;;;;;11.96;100.00;97885.59;5031977;28;19920;-71
2023/03/10 03:59:35;;;;;;;;;;;;;;;11.96;100.00;97893.59;5033121;28;19917;-71
2023/03/10 04:02:00;;;;;;;;;;;;;;;11.90;100.00;97908.22;5032402;28;19943;-71
2023/03/10 04:04:31;;;;;;;;;;;;;;;11.88;100.00;97903.94;5033403;28;20022;-69
2023/03/10 04:06:57;;;;;;;;;;;;;;;11.80;100.00;97885.84;5033283;28;19989;-72
2023/03/10 04:09:22;;;;;;;;;;;;;;;11.70;100.00;97865.28;5013457;28;19924;-69
2023/03/10 04:11:47;;;;;;;;;;;;;;;11.60;100.00;97861.56;5031907;28;19932;-67
2023/03/10 04:14:12;;;;;;;;;;;;;;;11.53;100.00;97866.47;5030684;28;19928;-66
2023/03/10 04:16:38;;;;;;;;;;;;;;;11.45;100.00;97860.00;5015412;28;19962;-66
2023/03/10 04:19:06;;;;;;;;;;;;;;;11.37;100.00;97852.53;5032050;28;19979;-65
2023/03/10 04:21:31;;;;;;;;;;;;;;;11.30;100.00;97832.63;5031365;28;19973;-65
2023/03/10 04:23:57;;;;;;;;;;;;;;;11.32;100.00;97835.16;5031910;28;20432;-65
2023/03/10 04:26:22;;;;;;;;;;;;;;;11.31;100.00;97837.00;5030964;28;20324;-65
2023/03/10 04:28:47;;;;;;;;;;;;;;;11.23;100.00;97822.53;5031798;28;20020;-65
2023/03/10 04:31:14;;;;;;;;;;;;;;;11.24;100.00;97813.56;5031095;28;19913;-65
2023/03/10 04:33:39;;;;;;;;;;;;;;;11.17;100.00;97802.50;5031364;28;20300;-65
2023/03/10 04:36:05;;;;;;;;;;;;;;;11.15;100.00;97792.94;5031456;28;19917;-65
2023/03/10 04:38:30;;;;;;;;;;;;;;;11.13;100.00;97794.84;5028197;28;20710;-65
2023/03/10 04:40:57;;;;;;;;;;;;;;;11.13;100.00;97792.19;5026644;28;19937;-65
2023/03/10 04:43:22;;;;;;;;;;;;;;;11.15;100.00;97795.59;5011877;28;20369;-65
2023/03/10 04:45:48;;;;;;;;;;;;;;;11.17;100.00;97796.34;5030334;28;19921;-64
2023/03/10 04:48:13;;;;;;;;;;;;;;;11.19;100.00;97789.09;5025284;28;19913;-64
2023/03/10 04:50:38;;;;;;;;;;;;;;;11.23;100.00;97793.25;5011613;28;19935;-64
2023/03/10 04:53:03;;;;;;;;;;;;;;;11.28;100.00;97793.78;5026825;28;19986;-64
2023/03/10 04:55:29;;;;;;;;;;;;;;;11.34;100.00;97788.00;5027372;28;19925;-64
2023/03/10 04:57:54;;;;;;;;;;;;;;;11.41;100.00;97783.97;5017442;28;19944;-64
2023/03/10 05:00:19;;;;;;;;;;;;;;;11.48;100.00;97777.25;5031086;28;20009;-65
2023/03/10 05:02:44;;;;;;;;;;;;;;;11.50;100.00;97767.31;5031201;28;20294;-65
2023/03/10 05:05:10;;;;;;;;;;;;;;;11.59;100.00;97769.34;5030139;28;20318;-65
2023/03/10 05:07:35;;;;;;;;;;;;;;;11.60;100.00;97768.34;5031112;28;19935;-65
2023/03/10 05:10:01;;;;;;;;;;;;;;;11.65;100.00;97771.56;5029496;28;20453;-65
2023/03/10 05:12:26;;;;;;;;;;;;;;;11.68;100.00;97766.03;5030458;28;19943;-65
2023/03/10 05:14:51;;;;;;;;;;;;;;;11.69;100.00;97773.06;5030786;28;20029;-65
2023/03/10 05:17:16;;;;;;;;;;;;;;;11.74;100.00;97771.78;5012250;28;19971;-65
2023/03/10 05:19:42;;;;;;;;;;;;;;;11.75;100.00;97767.28;5030617;28;19935;-66
2023/03/10 05:22:10;;;;;;;;;;;;;;;11.76;100.00;97761.00;5029903;28;20371;-65
2023/03/10 05:24:35;;;;;;;;;;;;;;;11.78;100.00;97769.72;5029992;28;19921;-65
2023/03/10 05:27:03;;;;;;;;;;;;;;;11.83;100.00;97764.91;5012844;28;20464;-65
2023/03/10 05:29:29;;;;;;;;;;;;;;;11.82;100.00;97768.53;5029938;28;19948;-66
2023/03/10 05:31:54;;;;;;;;;;;;;;;11.86;100.00;97764.72;5030637;28;19934;-65
2023/03/10 05:34:19;;;;;;;;;;;;;;;11.89;100.00;97754.66;5027982;28;19951;-65
2023/03/10 05:36:45;;;;;;;;;;;;;;;11.89;100.00;97749.31;5030461;28;19966;-65
2023/03/10 05:39:10;;;;;;;;;;;;;;;11.80;100.00;97738.50;5028837;28;19960;-64
2023/03/10 05:41:36;;;;;;;;;;;;;;;11.76;100.00;97702.41;5030543;28;20022;-64
2023/03/10 05:44:01;;;;;;;;;;;;;;;11.65;100.00;97708.53;5030518;28;19935;-63
2023/03/10 05:46:27;;;;;;;;;;;;;;;11.65;100.00;97716.50;5011614;28;19931;-63
2023/03/10 05:48:52;;;;;;;;;;;;;;;11.66;100.00;97730.69;5028426;28;19935;-63
2023/03/10 05:51:18;;;;;;;;;;;;;;;11.58;100.00;97727.72;5029339;28;19928;-62
2023/03/10 05:53:43;;;;;;;;;;;;;;;11.56;100.00;97732.28;5029223;28;20039;-62
2023/03/10 05:56:12;;;;;;;;;;;;;;;11.58;100.00;97727.72;5028646;28;19920;-62
2023/03/10 05:58:38;;;;;;;;;;;;;;;11.48;100.00;97718.69;5029172;28;21271;-61
2023/03/10 06:01:04;;;;;;;;;;;;;;;11.45;100.00;97727.72;5026850;28;19955;-62
2023/03/10 06:03:29;;;;;;;;;;;;;;;11.43;100.00;97705.69;5029920;28;19970;-62
2023/03/10 06:05:58;;;;;;;;;;;;;;;11.42;100.00;97703.13;5013451;28;19932;-62
2023/03/10 06:08:24;;;;;;;;;;;;;;;11.40;100.00;97695.28;5026474;28;19943;-62
2023/03/10 06:10:49;;;;;;;;;;;;;;;11.43;100.00;97695.03;5029275;28;20008;-62
2023/03/10 06:13:18;;;;;;;;;;;;;;;11.31;100.00;97695.09;5024211;28;20352;-63
2023/03/10 06:15:46;;;;;;;;;;;;;;;11.35;100.00;97699.25;5019233;28;20400;-63
2023/03/10 06:18:12;;;;;;;;;;;;;;;11.29;100.00;97705.00;5011263;28;19952;-63
2023/03/10 06:20:38;;;;;;;;;;;;;;;11.34;100.00;97701.03;5030869;28;19935;-63
2023/03/10 06:23:03;;;;;;;;;;;;;;;11.46;100.00;97693.97;5031958;28;19920;-63
2023/03/10 06:25:28;;;;;;;;;;;;;;;12.26;100.00;97688.78;5036016;28;19935;-63
2023/03/10 06:27:53;;;;;;;;;;;;;;;12.60;100.00;97687.91;5035521;28;19936;-63
2023/03/10 06:30:19;;;;;;;;;;;;;;;12.67;100.00;97694.47;5036195;28;20269;-63
2023/03/10 06:32:45;;;;;;;;;;;;;;;12.47;100.00;97703.13;5035216;28;19955;-63
2023/03/10 06:35:13;;;;;;;;;;;;;;;12.83;100.00;97694.94;5035960;28;19920;-64
2023/03/10 06:37:39;;;;;;;;;;;;;;;13.28;97.40;97690.50;5035887;28;19938;-64
2023/03/10 06:40:06;;;;;;;;;;;;;;;12.71;98.11;97698.59;5028933;28;19925;-64
2023/03/10 06:42:32;;;;;;;;;;;;;;;12.31;100.00;97691.97;5028708;28;19929;-64
2023/03/10 06:44:57;;;;;;;;;;;;;;;12.15;100.00;97702.09;5034967;28;19936;-64
2023/03/10 06:47:22;;;;;;;;;;;;;;;11.98;100.00;97697.19;5034635;28;20523;-64
2023/03/10 06:49:47;;;;;;;;;;;;;;;11.86;100.00;97696.28;5018385;28;19947;-64
2023/03/10 06:52:13;;;;;;;;;;;;;;;11.79;100.00;97684.38;5030402;28;20454;-64
2023/03/10 06:54:38;;;;;;;;;;;;;;;11.74;100.00;97693.69;5033202;28;19947;-64
2023/03/10 06:57:04;;;;;;;;;;;;;;;11.70;100.00;97684.22;5035551;28;20284;-64
2023/03/10 06:59:32;;;;;;;;;;;;;;;11.62;100.00;97667.94;5034688;28;19991;-64
2023/03/10 07:01:57;;;;;;;;;;;;;;;11.64;100.00;97660.72;5035694;28;19936;-64
2023/03/10 07:04:23;;;;;;;;;;;;;;;11.64;100.00;97658.06;5035817;28;20277;-64
2023/03/10 07:06:48;;;;;;;;;;;;;;;11.59;100.00;97652.19;5017447;28;19917;-64
2023/03/10 07:09:13;;;;;;;;;;;;;;;11.62;100.00;97659.94;5023196;28;19944;-64
2023/03/10 07:11:38;;;;;;;;;;;;;;;11.62;100.00;97659.94;5021984;28;20754;-64
2023/03/10 07:14:04;;;;;;;;;;;;;;;11.66;100.00;97669.44;5026156;28;19945;-64
2023/03/10 07:16:29;;;;;;;;;;;;;;;11.66;100.00;97661.47;5030813;28;20404;-65
2023/03/10 07:18:54;;;;;;;;;;;;;;;11.70;100.00;97676.22;5029300;28;19917;-64
2023/03/10 07:21:20;;;;;;;;;;;;;;;11.70;100.00;97705.50;5032970;28;19958;-65
2023/03/10 07:23:45;;;;;;;;;;;;;;;11.74;100.00;97744.28;5014117;28;19943;-64
2023/03/10 07:26:12;;;;;;;;;;;;;;;11.41;100.00;97755.53;5031832;28;19921;-64
2023/03/10 07:28:38;;;;;;;;;;;;;;;11.07;100.00;97758.06;5032466;28;19941;-65
2023/03/10 07:31:10;;;;;;;;;;;;;;;10.80;100.00;97774.13;5024856;28;19920;-66
2023/03/10 07:33:37;;;;;;;;;;;;;;;10.51;100.00;97765.47;5028879;28;19949;-65
2023/03/10 07:36:03;;;;;;;;;;;;;;;10.28;100.00;97779.47;5027608;28;19933;-65
2023/03/10 07:38:28;;;;;;;;;;;;;;;10.23;100.00;97741.72;5010599;28;20482;-65
2023/03/10 07:40:53;;;;;;;;;;;;;;;10.26;100.00;97753.97;5009382;28;20020;-64
2023/03/10 07:43:19;;;;;;;;;;;;;;;10.43;100.00;97762.47;5029026;28;20030;-63
2023/03/10 07:45:44;;;;;;;;;;;;;;;10.61;100.00;97766.53;5027507;28;19928;-62
2023/03/10 07:48:09;;;;;;;;;;;;;;;10.84;100.00;97777.41;5030028;28;20005;-61
2023/03/10 07:50:34;;;;;;;;;;;;;;;11.05;100.00;97773.25;5009121;28;19960;-62
2023/03/10 07:53:00;;;;;;;;;;;;;;;11.10;100.00;97784.44;5024960;28;19925;-61
2023/03/10 07:55:25;;;;;;;;;;;;;;;11.14;100.00;97792.09;5029095;28;19954;-62
2023/03/10 07:57:50;;;;;;;;;;;;;;;11.20;100.00;97798.78;5027825;28;20636;-61
2023/03/10 08:00:16;;;;;;;;;;;;;;;11.16;100.00;97800.81;5026347;28;19932;-61
2023/03/10 08:02:41;;;;;;;;;;;;;;;11.19;100.00;97794.41;5028005;28;19935;-62
2023/03/10 08:05:07;;;;;;;;;;;;;;;11.23;100.00;97790.59;5024189;28;20037;-62
2023/03/10 08:07:33;;;;;;;;;;;;;;;11.21;100.00;97797.81;5009686;28;19943;-62
2023/03/10 08:09:58;;;;;;;;;;;;;;;11.16;100.00;97802.63;5025386;28;19959;-61
2023/03/10 08:12:23;;;;;;;;;;;;;;;11.21;100.00;97804.00;5029401;28;19936;-62
2023/03/10 08:14:50;;;;;;;;;;;;;;;11.25;100.00;97804.66;5004671;28;20028;-62
2023/03/10 08:17:15;;;;;;;;;;;;;;;11.29;100.00;97800.78;5026378;28;19931;-62
2023/03/10 08:19:41;;;;;;;;;;;;;;;11.32;100.00;97811.22;5029388;28;19931;-62
2023/03/10 08:22:06;;;;;;;;;;;;;;;11.31;100.00;97812.19;5029188;28;19925;-63
2023/03/10 08:24:31;;;;;;;;;;;;;;;11.35;100.00;97808.38;5030717;28;20384;-62
2023/03/10 08:26:57;;;;;;;;;;;;;;;11.39;100.00;97812.50;5029978;28;19940;-62
2023/03/10 08:29:22;;;;;;;;;;;;;;;11.43;100.00;97811.34;5028352;28;19924;-62
2023/03/10 08:31:47;;;;;;;;;;;;;;;11.45;100.00;97818.22;5029029;28;19928;-62
2023/03/10 08:34:14;;;;;;;;;;;;;;;11.43;100.00;97814.81;5031108;28;19950;-62
2023/03/10 08:36:39;;;;;;;;;;;;;;;11.39;100.00;97823.13;5030879;28;19921;-61
2023/03/10 08:39:05;;;;;;;;;;;;;;;11.47;100.00;97820.78;5031633;28;19947;-61
2023/03/10 08:41:31;;;;;;;;;;;;;;;11.45;100.00;97828.06;5028523;28;19974;-62
2023/03/10 08:43:57;;;;;;;;;;;;;;;11.40;100.00;97831.00;5029480;28;20035;-62
2023/03/10 08:46:24;;;;;;;;;;;;;;;11.41;100.00;97821.22;5030396;28;20010;-62
2023/03/10 08:48:49;;;;;;;;;;;;;;;11.46;100.00;97821.75;5013254;28;19931;-62
2023/03/10 08:51:15;;;;;;;;;;;;;;;11.46;100.00;97819.09;5012253;28;19931;-63
2023/03/10 08:53:40;;;;;;;;;;;;;;;11.50;100.00;97815.22;5018698;28;19921;-63
2023/03/10 08:56:06;;;;;;;;;;;;;;;11.53;100.00;97820.38;5027009;28;19944;-64
2023/03/10 08:58:31;;;;;;;;;;;;;;;11.55;100.00;97808.63;5012924;28;20361;-64
2023/03/10 09:00:57;;;;;;;;;;;;;;;11.54;100.00;97811.41;5030564;28;19958;-65
2023/03/10 09:03:22;;;;;;;;;;;;;;;11.52;100.00;97814.19;5030648;28;19924;-66
2023/03/10 09:05:48;;;;;;;;;;;;;;;11.60;100.00;97808.28;5030992;28;19924;-66
2023/03/10 09:08:13;;;;;;;;;;;;;;;11.59;100.00;97814.59;5001095;28;19970;-66
2023/03/10 09:10:39;;;;;;;;;;;;;;;11.61;100.00;97820.66;5017510;28;19967;-67
2023/03/10 09:13:05;;;;;;;;;;;;;;;11.61;100.00;97818.00;5011476;28;19925;-66
2023/03/10 09:15:30;;;;;;;;;;;;;;;11.66;100.00;97815.91;5012805;28;19928;-66
2023/03/10 09:17:56;;;;;;;;;;;;;;;11.57;100.00;97825.34;5012427;28;19917;-66
2023/03/10 09:20:24;;;;;;;;;;;;;;;11.58;100.00;97839.53;5029672;28;20381;-65
2023/03/10 09:22:51;;;;;;;;;;;;;;;11.56;100.00;97833.47;5012148;28;19913;-66
2023/03/10 09:25:16;;;;;;;;;;;;;;;11.52;100.00;97824.84;5029897;28;19944;-67
2023/03/10 09:27:41;;;;;;;;;;;;;;;11.49;100.00;97838.38;5029836;28;19917;-68
2023/03/10 09:30:07;;;;;;;;;;;;;;;11.48;100.00;97831.31;5003543;28;19924;-70
2023/03/10 09:32:32;;;;;;;;;;;;;;;11.48;100.00;97838.47;5029926;28;20418;-70
2023/03/10 09:34:57;;;;;;;;;;;;;;;11.46;100.00;97837.72;5012545;28;19921;-69
2023/03/10 09:37:23;;;;;;;;;;;;;;;11.40;100.00;97854.16;5028985;28;19967;-68
2023/03/10 09:39:48;;;;;;;;;;;;;;;11.36;100.00;97860.63;5029987;28;19931;-67
2023/03/10 09:42:13;;;;;;;;;;;;;;;11.45;100.00;97849.34;5024294;28;20034;-66
2023/03/10 09:44:44;;;;;;;;;;;;;;;11.41;100.00;97866.47;5029741;28;19931;-65
2023/03/10 09:47:09;;;;;;;;;;;;;;;11.37;100.00;97873.81;5026564;28;20005;-64
2023/03/10 09:49:37;;;;;;;;;;;;;;;11.26;100.00;97878.19;5028176;28;20334;-63
2023/03/10 09:52:16;;;;;;;;;;;;;;;11.26;100.00;97859.56;5030040;28;19967;-63
2023/03/10 09:54:53;;;;;;;;;;;;;;;11.27;100.00;97879.88;5021772;28;19954;-63
2023/03/10 09:57:20;;;;;;;;;;;;;;;11.26;100.00;97870.19;5029495;28;20017;-64
2023/03/10 09:59:47;;;;;;;;;;;;;;;11.37;100.00;97867.63;5017986;28;19974;-65
2023/03/10 10:02:26;;;;;;;;;;;;;;;11.31;100.00;97860.09;5029704;28;20016;-65
2023/03/10 10:04:55;;;;;;;;;;;;;;;11.41;100.00;97871.81;5029454;28;20550;-65
2023/03/10 10:07:23;;;;;;;;;;;;;;;11.42;100.00;97860.19;5028824;28;19927;-64
2023/03/10 10:09:55;;;;;;;;;;;;;;;11.45;100.00;97862.66;5029616;28;20304;-64
2023/03/10 10:12:22;;;;;;;;;;;;;;;11.45;100.00;97870.66;5028970;28;19943;-65
2023/03/10 10:14:53;;;;;;;;;;;;;;;11.43;100.00;97875.22;5029658;28;19956;-65
2023/03/10 10:17:25;;;;;;;;;;;;;;;11.39;100.00;97881.69;5029075;28;20318;-64
2023/03/10 10:19:51;;;;;;;;;;;;;;;11.42;100.00;97884.13;5028726;28;19979;-64
2023/03/10 10:22:19;;;;;;;;;;;;;;;11.47;100.00;97890.84;5027880;28;19936;-64
2023/03/10 10:24:57;;;;;;;;;;;;;;;11.48;100.00;97881.06;5029039;28;20083;-64
2023/03/10 10:27:22;;;;;;;;;;;;;;;11.52;100.00;97883.41;5027787;28;20041;-64
2023/03/10 10:29:48;;;;;;;;;;;;;;;11.59;100.00;97886.47;5028817;28;20585;-63
2023/03/10 10:32:14;;;;;;;;;;;;;;;11.59;100.00;97883.81;5028850;28;19913;-63
2023/03/10 10:34:41;;;;;;;;;;;;;;;11.62;100.00;97876.47;5028617;28;19943;-63
2023/03/10 10:37:25;;;;;;;;;;;;;;;11.59;100.00;97889.16;5029800;28;19929;-63
2023/03/10 10:39:51;;;;;;;;;;;;;;;11.59;100.00;97886.47;5021608;28;19932;-63
2023/03/10 10:42:27;;;;;;;;;;;;;;;11.54;100.00;97891.28;5010697;28;19935;-63
2023/03/10 10:44:54;;;;;;;;;;;;;;;11.61;100.00;97887.22;5015042;28;20065;-63
2023/03/10 10:47:30;;;;;;;;;;;;;;;11.61;100.00;97900.53;5029736;28;20061;-63
2023/03/10 10:50:08;;;;;;;;;;;;;;;11.60;100.00;97890.84;5021693;28;19927;-63
2023/03/10 10:52:33;;;;;;;;;;;;;;;11.61;100.00;97895.22;5029025;28;19942;-63
2023/03/10 10:55:01;;;;;;;;;;;;;;;11.71;100.00;97899.81;5028049;28;19931;-63
2023/03/10 10:57:34;;;;;;;;;;;;;;;11.71;100.00;97897.16;5029512;28;20148;-63
2023/03/10 11:00:18;;;;;;;;;;;;;;;11.71;100.00;97893.66;5028732;28;19931;-63
2023/03/10 11:02:44;;;;;;;;;;;;;;;11.74;100.00;97898.75;5029361;28;20357;-63
2023/03/10 11:05:12;;;;;;;;;;;;;;;11.74;100.00;97901.41;5025228;28;19947;-63
2023/03/10 11:07:37;;;;;;;;;;;;;;;11.80;100.00;97903.63;5031703;28;19927;-63
2023/03/10 11:10:14;;;;;;;;;;;;;;;11.83;100.00;97898.09;5033068;28;20514;-63
2023/03/10 11:12:58;;;;;;;;;;;;;;;11.88;100.00;97901.28;5032135;28;19985;-63
2023/03/10 11:15:37;;;;;;;;;;;;;;;11.90;100.00;97907.34;5033391;28;19954;-63
2023/03/10 11:18:13;;;;;;;;;;;;;;;11.94;100.00;97904.34;5032033;28;20330;-63
2023/03/10 11:20:50;;;;;;;;;;;;;;;11.79;100.00;97909.94;5031612;28;19937;-64
2023/03/10 11:23:20;;;;;;;;;;;;;;;11.87;100.00;97915.56;5031727;28;20308;-64
2023/03/10 11:25:46;;;;;;;;;;;;;;;11.93;100.00;97914.28;5032956;28;20004;-64
2023/03/10 11:28:14;;;;;;;;;;;;;;;11.94;100.00;97915.00;5015126;28;20018;-64
2023/03/10 11:30:46;;;;;;;;;;;;;;;11.98;100.00;97922.81;5032717;28;19951;-64
2023/03/10 11:33:21;;;;;;;;;;;;;;;11.95;100.00;97910.53;5031457;28;19979;-64
2023/03/10 11:35:49;;;;;;;;;;;;;;;11.89;100.00;97929.63;5015033;28;20377;-64
2023/03/10 11:38:14;;;;;;;;;;;;;;;11.84;100.00;97923.78;5014663;28;19917;-64
2023/03/10 11:40:42;;;;;;;;;;;;;;;11.80;100.00;97925.81;5032168;28;19997;-64
2023/03/10 11:43:15;;;;;;;;;;;;;;;11.61;100.00;97933.31;5032441;28;20282;-64
2023/03/10 11:45:41;;;;;;;;;;;;;;;11.65;98.32;97926.88;5031982;28;19982;-64
2023/03/10 11:48:09;;;;;;;;;;;;;;;11.72;97.64;97924.63;5032536;28;20180;-64
2023/03/10 11:50:43;;;;;;;;;;;;;;;11.79;99.02;97926.75;5031690;28;19927;-64
2023/03/10 11:53:15;;;;;;;;;;;;;;;11.80;97.52;97914.28;5019634;28;20042;-64
2023/03/10 11:55:42;;;;;;;;;;;;;;;11.87;95.59;97915.56;5032288;28;19917;-64
2023/03/10 11:58:17;;;;;;;;;;;;;;;11.90;94.62;97915.34;5031232;28;19982;-64
2023/03/10 12:00:43;;;;;;;;;;;;;;;11.93;93.62;97922.28;5028687;28;20412;-64
2023/03/10 12:03:08;;;;;;;;;;;;;;;11.87;93.96;97928.88;5013749;28;20015;-64
2023/03/10 12:05:51;;;;;;;;;;;;;;;11.79;95.19;97928.56;5014044;28;20399;-64
2023/03/10 12:08:18;;;;;;;;;;;;;;;11.77;97.18;97914.50;5031429;28;19917;-64
2023/03/10 12:10:43;;;;;;;;;;;;;;;11.69;98.08;97919.53;5031761;28;19979;-64
2023/03/10 12:13:17;;;;;;;;;;;;;;;11.68;98.76;97916.00;5032018;28;19944;-64
2023/03/10 12:15:42;;;;;;;;;;;;;;;11.69;99.06;97927.53;5030882;28;19931;-64
2023/03/10 12:18:09;;;;;;;;;;;;;;;11.53;100.00;97889.59;5031229;28;19950;-65
2023/03/10 12:20:35;;;;;;;;;;;;;;;11.75;100.00;97927.06;5031823;28;19913;-65
2023/03/10 12:23:09;;;;;;;;;;;;;;;11.72;100.00;97941.47;5031342;28;19976;-64
2023/03/10 12:25:37;;;;;;;;;;;;;;;11.70;99.33;97946.06;5031906;28;19925;-64
2023/03/10 12:28:13;;;;;;;;;;;;;;;11.54;100.00;97949.84;5031980;28;19943;-64
2023/03/10 12:30:55;;;;;;;;;;;;;;;11.61;100.00;97945.81;5013552;28;20378;-64
2023/03/10 12:33:40;;;;;;;;;;;;;;;11.51;100.00;97944.75;5030411;28;19932;-65
2023/03/10 12:36:08;;;;;;;;;;;;;;;11.48;100.00;97944.97;5031559;28;19924;-65
2023/03/10 12:38:45;;;;;;;;;;;;;;;11.58;100.00;97940.72;5012746;28;19942;-65